Terminal Aerodrome Forecast
Issued by NWS Greer, SC

Home | Current Version | Previous Version | Text Only | Print | Product List | Glossary On
Versions: 1 2 3 4 5 6 7 8 9 10 11 12 13 14 15 16 17 18 19
000
FTUS42 KGSP 011133
TAFGSP
TAF
KGSP 011133Z 0112/0212 17003KT P6SM SCT250
     FM011400 05010KT P6SM SCT250
     FM012100 10005KT P6SM FEW050
     FM020400 12003KT P6SM SCT050
     FM021000 09003KT P6SM SCT035 BKN060=

USA.gov is the U.S. government's official web portal to all federal, state and local government web resources and services.